createdAt,value
2022-08-17T00:00:49.394Z,7.55
2022-08-17T00:03:42.107Z,6.57
2022-08-17T00:06:31.305Z,7.65
2022-08-17T00:09:18.677Z,7.82
2022-08-17T00:12:51.508Z,8.05
2022-08-17T00:15:14.204Z,7.80
2022-08-17T00:18:00.873Z,8.35
2022-08-17T00:20:48.827Z,7.97
2022-08-17T00:23:35.854Z,8.50
2022-08-17T00:26:34.513Z,8.52
2022-08-17T00:29:30.181Z,8.05
2022-08-17T00:33:11.987Z,8.98
2022-08-17T00:35:25.246Z,9.52
2022-08-17T00:38:13.317Z,8.93
2022-08-17T00:41:01.977Z,9.68
2022-08-17T00:43:49.836Z,8.50
2022-08-17T00:46:39.208Z,9.30
2022-08-17T00:49:26.194Z,9.07
2022-08-17T00:52:16.560Z,8.95
2022-08-17T00:55:06.464Z,9.55
2022-08-17T00:57:55.823Z,9.35
2022-08-17T01:00:45.031Z,10.02
2022-08-17T01:03:32.200Z,10.27
2022-08-17T01:06:19.502Z,10.10
2022-08-17T01:09:06.907Z,9.93
2022-08-17T01:11:54.886Z,9.95
2022-08-17T01:14:42.357Z,10.35
2022-08-17T01:17:29.677Z,9.57
2022-08-17T01:20:16.836Z,9.98
2022-08-17T01:23:05.086Z,9.80
2022-08-17T01:25:52.162Z,10.10
2022-08-17T01:28:53.984Z,10.25
2022-08-17T01:31:45.842Z,10.13
2022-08-17T01:34:42.299Z,10.52
2022-08-17T01:37:32.001Z,11.15
2022-08-17T01:40:24.577Z,10.48
2022-08-17T01:43:12.774Z,11.07
2022-08-17T01:46:03.874Z,11.45
2022-08-17T01:48:51.410Z,11.63
2022-08-17T01:51:38.593Z,11.00
2022-08-17T01:54:25.929Z,11.05
2022-08-17T01:57:13.979Z,12.40
2022-08-17T02:00:01.026Z,11.25
2022-08-17T02:02:48.043Z,12.05
2022-08-17T02:05:35.182Z,13.05
2022-08-17T02:08:38.778Z,12.40
2022-08-17T02:11:26.474Z,10.77
2022-08-17T02:14:14.994Z,13.13
2022-08-17T02:17:02.022Z,11.27
2022-08-17T02:19:48.843Z,12.80
2022-08-17T02:22:36.228Z,12.18
2022-08-17T02:25:23.493Z,13.00
2022-08-17T02:28:12.309Z,13.70
2022-08-17T02:31:04.917Z,13.50
2022-08-17T02:34:03.436Z,13.50
2022-08-17T02:36:53.334Z,12.30
2022-08-17T02:39:40.272Z,12.68
2022-08-17T02:42:28.682Z,14.20
2022-08-17T02:45:20.309Z,12.40
2022-08-17T02:48:08.350Z,13.45
2022-08-17T02:50:54.974Z,13.40
2022-08-17T02:53:42.068Z,13.93
2022-08-17T02:56:28.456Z,14.05
2022-08-17T02:59:15.394Z,13.02
2022-08-17T03:02:04.334Z,12.95
2022-08-17T03:04:52.391Z,13.18
2022-08-17T03:07:39.592Z,12.60
2022-08-17T03:10:26.751Z,11.95
2022-08-17T03:13:14.473Z,12.30
2022-08-17T03:16:01.137Z,12.87
2022-08-17T03:18:48.510Z,13.77
2022-08-17T03:21:36.834Z,12.13
2022-08-17T03:24:28.612Z,12.43
2022-08-17T03:27:16.086Z,11.95
2022-08-17T03:30:03.388Z,12.95
2022-08-17T03:32:51.043Z,12.00
2022-08-17T03:35:40.213Z,12.00
2022-08-17T03:38:28.619Z,12.10
2022-08-17T03:41:26.005Z,12.37
2022-08-17T03:44:12.749Z,12.97
2022-08-17T03:47:17.124Z,12.57
2022-08-17T03:50:33.124Z,12.47
2022-08-17T03:53:37.668Z,12.73
2022-08-17T03:56:44.332Z,11.70
2022-08-17T03:59:31.409Z,11.48
2022-08-17T04:02:19.801Z,12.73
2022-08-17T04:05:07.110Z,11.38
2022-08-17T04:07:53.772Z,11.13
2022-08-17T04:10:44.951Z,12.13
2022-08-17T04:13:33.657Z,11.33
2022-08-17T04:16:20.472Z,12.90
2022-08-17T04:19:07.837Z,12.37
2022-08-17T04:21:54.898Z,11.75
2022-08-17T04:24:41.805Z,10.63
2022-08-17T04:27:28.764Z,11.93
2022-08-17T04:30:17.584Z,11.13
2022-08-17T04:33:08.584Z,10.75
2022-08-17T04:35:59.031Z,11.77
2022-08-17T04:38:47.413Z,11.27
2022-08-17T04:41:51.540Z,10.90
2022-08-17T04:44:38.450Z,10.60
2022-08-17T04:47:26.450Z,10.43
2022-08-17T04:50:13.277Z,10.35
2022-08-17T04:53:00.337Z,10.32
2022-08-17T04:55:47.625Z,11.70
2022-08-17T04:58:34.743Z,9.95
2022-08-17T05:01:23.685Z,10.27
2022-08-17T05:04:33.565Z,10.15
2022-08-17T05:07:23.964Z,10.13
2022-08-17T05:10:12.176Z,11.40
2022-08-17T05:12:59.978Z,11.10
2022-08-17T05:15:48.505Z,11.65
2022-08-17T05:18:37.122Z,12.00
2022-08-17T05:21:25.394Z,11.98
2022-08-17T05:24:16.718Z,11.25
2022-08-17T05:27:19.101Z,11.65
2022-08-17T05:30:06.246Z,12.43
2022-08-17T05:32:54.465Z,10.98
2022-08-17T05:35:44.381Z,11.30
2022-08-17T05:38:33.141Z,12.68
2022-08-17T05:41:19.907Z,12.05
2022-08-17T05:44:06.750Z,12.52
2022-08-17T05:46:54.303Z,9.77
2022-08-17T05:49:40.864Z,11.73
2022-08-17T05:52:31.234Z,11.70
2022-08-17T05:55:24.909Z,11.43
2022-08-17T05:58:18.521Z,12.25
2022-08-17T06:01:10.744Z,12.35
2022-08-17T06:04:02.407Z,11.45
2022-08-17T06:06:52.363Z,11.05
2022-08-17T06:09:41.197Z,11.75
2022-08-17T06:12:35.669Z,12.17
2022-08-17T06:15:28.875Z,10.98
2022-08-17T06:18:19.011Z,13.93
2022-08-17T06:21:08.809Z,11.83
2022-08-17T06:23:58.844Z,11.25
2022-08-17T06:26:46.272Z,10.80
2022-08-17T06:29:38.910Z,11.73
2022-08-17T06:32:26.243Z,11.90
2022-08-17T06:35:14.311Z,11.18
2022-08-17T06:38:08.472Z,12.00
2022-08-17T06:41:05.179Z,10.98
2022-08-17T06:43:58.787Z,9.95
2022-08-17T06:46:48.744Z,11.50
2022-08-17T06:49:36.620Z,10.82
2022-08-17T06:52:42.453Z,11.05
2022-08-17T06:55:37.890Z,10.13
2022-08-17T06:58:29.478Z,9.70
2022-08-17T07:01:18.836Z,8.77
2022-08-17T07:04:11.944Z,8.88
2022-08-17T07:07:01.060Z,9.07
2022-08-17T07:09:47.595Z,9.00
2022-08-17T07:12:38.435Z,8.55
2022-08-17T07:15:29.337Z,8.65
2022-08-17T07:18:16.294Z,8.98
2022-08-17T07:21:11.043Z,8.15
2022-08-17T07:24:05.071Z,12.05
2022-08-17T07:27:03.647Z,8.73
2022-08-17T07:29:53.519Z,8.00
2022-08-17T07:32:41.500Z,7.75
2022-08-17T07:35:41.376Z,8.23
2022-08-17T07:38:33.543Z,7.95
2022-08-17T07:41:21.800Z,8.57
2022-08-17T07:44:12.992Z,8.52
2022-08-17T07:47:25.497Z,7.07
2022-08-17T07:50:26.890Z,6.97
2022-08-17T07:53:18.255Z,6.95
2022-08-17T07:56:06.845Z,10.57
2022-08-17T07:59:07.121Z,8.00
2022-08-17T08:02:03.345Z,8.20
2022-08-17T08:05:02.032Z,7.72
2022-08-17T08:07:54.227Z,8.17
2022-08-17T08:10:45.330Z,8.03
2022-08-17T08:13:34.663Z,9.60
2022-08-17T08:16:27.003Z,9.75
2022-08-17T08:19:20.890Z,13.43
2022-08-17T08:22:11.547Z,8.02
2022-08-17T08:25:05.273Z,8.40
2022-08-17T08:27:56.564Z,7.73
2022-08-17T08:30:48.518Z,7.60
2022-08-17T08:33:45.020Z,8.53
2022-08-17T08:37:15.934Z,7.90
2022-08-17T08:39:52.462Z,8.82
2022-08-17T08:42:43.799Z,8.98
2022-08-17T08:45:38.294Z,9.40
2022-08-17T08:48:56.877Z,8.95
2022-08-17T08:51:47.664Z,8.27
2022-08-17T08:54:39.394Z,9.25
2022-08-17T08:57:33.661Z,8.60
2022-08-17T09:00:22.518Z,8.27
2022-08-17T09:03:43.795Z,10.05
2022-08-17T09:06:41.001Z,10.23
2022-08-17T09:09:35.109Z,8.93
2022-08-17T09:12:26.169Z,10.40
2022-08-17T09:15:17.679Z,8.47
2022-08-17T09:19:00.247Z,10.13
2022-08-17T09:21:18.285Z,10.50
2022-08-17T09:24:11.143Z,10.45
2022-08-17T09:27:00.702Z,8.37
2022-08-17T09:29:50.290Z,10.40
2022-08-17T09:32:39.413Z,9.23
2022-08-17T09:35:36.499Z,10.35
2022-08-17T09:38:31.760Z,9.52
2022-08-17T09:41:23.678Z,8.75
2022-08-17T09:44:23.382Z,8.95
2022-08-17T09:47:14.390Z,7.93
2022-08-17T09:50:05.030Z,9.77
2022-08-17T09:52:54.317Z,9.68
2022-08-17T09:55:45.841Z,9.55
2022-08-17T09:58:38.845Z,9.15
2022-08-17T10:01:31.427Z,7.85
2022-08-17T10:04:29.632Z,8.65
2022-08-17T10:07:19.052Z,9.23
2022-08-17T10:10:14.244Z,8.77
2022-08-17T10:13:09.537Z,8.07
2022-08-17T10:16:00.293Z,8.77
2022-08-17T10:18:52.341Z,8.05
2022-08-17T10:22:00.939Z,8.52
2022-08-17T10:25:23.836Z,7.40
2022-08-17T10:28:20.061Z,7.40
2022-08-17T10:31:33.806Z,7.97
2022-08-17T10:34:28.812Z,9.00
2022-08-17T10:37:29.493Z,8.57
2022-08-17T10:40:33.112Z,7.82
2022-08-17T10:43:29.525Z,8.43
2022-08-17T10:46:31.228Z,7.85
2022-08-17T10:49:25.773Z,8.15
2022-08-17T10:52:27.273Z,8.37
2022-08-17T10:55:17.745Z,8.02
2022-08-17T10:58:20.918Z,8.77
2022-08-17T11:01:12.465Z,8.63
2022-08-17T11:04:05.054Z,8.73
2022-08-17T11:06:55.060Z,7.65
2022-08-17T11:09:51.237Z,8.10
2022-08-17T11:12:43.482Z,8.23
2022-08-17T11:15:41.238Z,8.77
2022-08-17T11:18:36.710Z,8.87
2022-08-17T11:21:39.744Z,8.45
2022-08-17T11:24:33.151Z,8.50
2022-08-17T11:27:24.770Z,8.45
2022-08-17T11:30:13.999Z,7.57
2022-08-17T11:33:01.716Z,8.25
2022-08-17T11:35:51.407Z,9.60
2022-08-17T11:38:47.622Z,8.90
2022-08-17T11:41:41.086Z,8.90
2022-08-17T11:44:37.509Z,9.13
2022-08-17T11:47:53.017Z,8.88
2022-08-17T11:51:13.005Z,8.55
2022-08-17T11:54:31.001Z,7.80
2022-08-17T11:57:30.270Z,7.10
2022-08-17T12:00:36.047Z,8.07
2022-08-17T12:03:42.366Z,9.07
2022-08-17T12:06:46.590Z,9.77
2022-08-17T12:09:35.159Z,10.57
2022-08-17T12:12:29.433Z,9.20
2022-08-17T12:15:18.857Z,9.43
2022-08-17T12:18:05.718Z,8.65
2022-08-17T12:21:04.977Z,10.35
2022-08-17T12:23:56.016Z,10.33
2022-08-17T12:26:45.190Z,8.95
2022-08-17T12:29:35.796Z,10.05
2022-08-17T12:32:26.934Z,10.55
2022-08-17T12:35:20.921Z,9.45
2022-08-17T12:38:32.568Z,9.60
2022-08-17T12:41:29.754Z,10.63
2022-08-17T12:44:19.328Z,10.07
2022-08-17T12:47:09.612Z,9.38
2022-08-17T12:49:57.307Z,10.80
2022-08-17T12:52:44.731Z,9.70
2022-08-17T12:55:37.371Z,10.10
2022-08-17T12:58:25.797Z,10.40
2022-08-17T13:01:17.777Z,10.18
2022-08-17T13:04:06.559Z,11.27
2022-08-17T13:06:59.898Z,10.02
2022-08-17T13:09:52.130Z,11.07
2022-08-17T13:12:40.546Z,9.68
2022-08-17T13:15:29.605Z,10.85
2022-08-17T13:18:31.458Z,10.10
2022-08-17T13:21:27.157Z,9.35
2022-08-17T13:24:18.007Z,9.60
2022-08-17T13:27:07.877Z,10.87
2022-08-17T13:29:57.910Z,10.95
2022-08-17T13:32:46.492Z,10.73
2022-08-17T13:35:39.569Z,10.95
2022-08-17T13:38:40.967Z,10.55
2022-08-17T13:41:33.519Z,11.00
2022-08-17T13:44:33.622Z,10.27
2022-08-17T13:47:22.034Z,9.82
2022-08-17T13:50:20.581Z,11.82
2022-08-17T13:53:17.229Z,9.98
2022-08-17T13:56:37.720Z,10.43
2022-08-17T13:59:15.502Z,11.35
2022-08-17T14:02:02.593Z,11.65
2022-08-17T14:04:50.230Z,12.32
2022-08-17T14:07:41.051Z,11.88
2022-08-17T14:10:28.049Z,11.65
2022-08-17T14:13:16.285Z,10.73
2022-08-17T14:16:02.953Z,10.93
2022-08-17T14:18:56.206Z,11.23
2022-08-17T14:21:44.962Z,12.70
2022-08-17T14:24:32.816Z,10.75
2022-08-17T14:27:20.478Z,9.70
2022-08-17T14:30:10.324Z,9.90
2022-08-17T14:32:57.898Z,10.50
2022-08-17T14:35:44.746Z,10.23
2022-08-17T14:38:31.487Z,10.77
2022-08-17T14:41:22.059Z,11.23
2022-08-17T14:44:11.071Z,10.95
2022-08-17T14:46:59.154Z,10.38
2022-08-17T14:49:48.238Z,10.40
2022-08-17T14:52:35.122Z,9.38
2022-08-17T14:55:21.829Z,10.23
2022-08-17T14:58:09.332Z,10.35
2022-08-17T15:00:56.221Z,9.68
2022-08-17T15:03:44.615Z,8.70
2022-08-17T15:06:31.430Z,10.23
2022-08-17T15:09:18.343Z,8.70
2022-08-17T15:12:06.382Z,8.35
2022-08-17T15:14:53.100Z,7.93
2022-08-17T15:17:44.298Z,7.97
2022-08-17T15:20:35.525Z,8.07
2022-08-17T15:23:23.449Z,8.57
2022-08-17T15:26:10.268Z,7.70
2022-08-17T15:28:57.512Z,8.60
2022-08-17T15:31:44.879Z,7.57
2022-08-17T15:34:31.671Z,9.13
2022-08-17T15:37:20.013Z,7.75
2022-08-17T15:40:07.935Z,8.63
2022-08-17T15:42:55.206Z,7.50
2022-08-17T15:45:42.118Z,8.13
2022-08-17T15:48:41.232Z,8.60
2022-08-17T15:51:29.217Z,9.23
2022-08-17T15:54:22.152Z,7.72
2022-08-17T15:57:09.581Z,7.25
2022-08-17T15:59:58.911Z,8.60
2022-08-17T16:03:13.251Z,8.60
2022-08-17T16:05:53.634Z,7.57
2022-08-17T16:08:44.368Z,10.23
2022-08-17T16:11:32.305Z,7.78
2022-08-17T16:14:18.846Z,7.78
2022-08-17T16:17:38.380Z,7.30
2022-08-17T16:20:20.654Z,7.22
2022-08-17T16:23:07.986Z,5.33
2022-08-17T16:25:54.795Z,5.60
2022-08-17T16:28:42.870Z,5.55
2022-08-17T16:31:29.502Z,4.65
2022-08-17T16:34:18.712Z,5.20
2022-08-17T16:37:05.864Z,5.50
2022-08-17T16:39:52.690Z,5.32
2022-08-17T16:42:40.688Z,5.38
2022-08-17T16:45:36.808Z,5.50
2022-08-17T16:48:24.230Z,6.40
2022-08-17T16:51:11.234Z,6.20
2022-08-17T16:53:59.553Z,5.97
2022-08-17T16:56:46.677Z,6.27
2022-08-17T16:59:40.925Z,5.82
2022-08-17T17:02:33.521Z,5.85
2022-08-17T17:05:26.778Z,5.47
2022-08-17T17:08:14.974Z,6.30
2022-08-17T17:11:12.652Z,5.17
2022-08-17T17:14:01.925Z,5.75
2022-08-17T17:16:53.341Z,5.57
2022-08-17T17:19:45.454Z,5.93
2022-08-17T17:22:34.478Z,5.35
2022-08-17T17:25:25.993Z,4.60
2022-08-17T17:28:17.507Z,5.07
2022-08-17T17:31:10.539Z,4.15
2022-08-17T17:33:58.158Z,3.35
2022-08-17T17:36:49.897Z,4.53
2022-08-17T17:39:41.351Z,3.75
2022-08-17T17:42:32.926Z,3.60
2022-08-17T17:45:21.890Z,4.03
2022-08-17T17:48:08.525Z,3.88
2022-08-17T17:50:57.719Z,4.30
2022-08-17T17:53:50.042Z,4.00
2022-08-17T17:56:44.598Z,4.93
2022-08-17T17:59:43.737Z,5.07
2022-08-17T18:02:52.172Z,4.78
2022-08-17T18:05:54.767Z,5.45
2022-08-17T18:08:50.032Z,5.97
2022-08-17T18:11:51.538Z,5.75
2022-08-17T18:14:44.478Z,6.05
2022-08-17T18:17:31.128Z,5.65
2022-08-17T18:20:20.924Z,5.63
2022-08-17T18:23:28.153Z,6.22
2022-08-17T18:26:36.427Z,5.88
2022-08-17T18:29:25.389Z,6.47
2022-08-17T18:32:21.126Z,5.72
2022-08-17T18:35:29.256Z,6.95
2022-08-17T18:38:20.753Z,6.32
2022-08-17T18:41:18.485Z,6.38
2022-08-17T18:44:07.866Z,6.78
2022-08-17T18:47:07.345Z,6.90
2022-08-17T18:49:57.577Z,6.07
2022-08-17T18:52:44.315Z,6.78
2022-08-17T18:55:32.416Z,7.15
2022-08-17T18:58:20.680Z,6.65
2022-08-17T19:01:18.812Z,6.18
2022-08-17T19:04:05.847Z,6.65
2022-08-17T19:07:03.342Z,6.67
2022-08-17T19:09:52.044Z,6.25
2022-08-17T19:12:40.854Z,7.20
2022-08-17T19:15:29.268Z,7.13
2022-08-17T19:18:18.486Z,7.07
2022-08-17T19:21:07.621Z,6.70
2022-08-17T19:23:55.869Z,6.60
2022-08-17T19:26:51.080Z,6.40
2022-08-17T19:29:45.958Z,6.60
2022-08-17T19:32:34.166Z,6.73
2022-08-17T19:35:26.269Z,6.40
2022-08-17T19:38:21.795Z,6.38
2022-08-17T19:41:13.014Z,7.22
2022-08-17T19:44:07.640Z,7.07
2022-08-17T19:47:00.861Z,6.15
2022-08-17T19:49:54.003Z,6.75
2022-08-17T19:52:48.536Z,7.07
2022-08-17T19:55:43.603Z,5.80
2022-08-17T19:58:39.825Z,7.07
2022-08-17T20:01:34.885Z,5.35
2022-08-17T20:04:32.386Z,6.35
2022-08-17T20:07:23.345Z,5.60
2022-08-17T20:10:14.972Z,6.28
2022-08-17T20:13:05.581Z,6.75
2022-08-17T20:15:52.218Z,6.13
2022-08-17T20:18:44.048Z,6.07
2022-08-17T20:21:38.081Z,5.95
2022-08-17T20:24:30.493Z,6.47
2022-08-17T20:27:21.261Z,6.57
2022-08-17T20:30:13.257Z,6.10
2022-08-17T20:33:00.499Z,6.15
2022-08-17T20:36:02.734Z,5.90
2022-08-17T20:38:50.998Z,5.63
2022-08-17T20:42:02.507Z,6.88
2022-08-17T20:44:52.485Z,5.57
2022-08-17T20:48:00.752Z,5.70
2022-08-17T20:50:53.497Z,5.72
2022-08-17T20:53:59.190Z,4.78
2022-08-17T20:56:51.032Z,4.68
2022-08-17T20:59:59.303Z,5.38
2022-08-17T21:02:47.214Z,5.50
2022-08-17T21:05:34.951Z,4.80
2022-08-17T21:08:28.034Z,5.07
2022-08-17T21:11:56.882Z,4.80
2022-08-17T21:14:42.524Z,5.13
2022-08-17T21:17:45.216Z,4.82
2022-08-17T21:20:37.127Z,4.57
2022-08-17T21:23:31.220Z,5.22
2022-08-17T21:26:25.540Z,4.80
2022-08-17T21:29:32.315Z,4.60
2022-08-17T21:32:28.866Z,4.53
2022-08-17T21:35:28.510Z,4.45
2022-08-17T21:38:16.191Z,4.95
2022-08-17T21:41:03.149Z,3.88
2022-08-17T21:43:51.462Z,4.53
2022-08-17T21:46:39.886Z,4.00
2022-08-17T21:49:28.581Z,4.00
2022-08-17T21:52:18.301Z,4.43
2022-08-17T21:55:05.626Z,3.92
2022-08-17T21:57:53.023Z,3.72
2022-08-17T22:01:13.263Z,4.03
2022-08-17T22:04:03.247Z,3.30
2022-08-17T22:06:54.225Z,3.80
2022-08-17T22:09:46.351Z,4.22
2022-08-17T22:12:33.244Z,3.70
2022-08-17T22:15:20.533Z,3.72
2022-08-17T22:18:11.697Z,4.35
2022-08-17T22:20:59.766Z,3.65
2022-08-17T22:24:07.645Z,3.67
2022-08-17T22:27:07.059Z,3.55
2022-08-17T22:29:57.451Z,3.50
2022-08-17T22:32:45.852Z,3.63
2022-08-17T22:35:34.811Z,3.50
2022-08-17T22:38:29.482Z,3.90
2022-08-17T22:41:37.836Z,3.80
2022-08-17T22:44:28.256Z,2.97
2022-08-17T22:47:27.831Z,3.80
2022-08-17T22:50:18.579Z,3.87
2022-08-17T22:53:31.317Z,3.60
2022-08-17T22:56:37.283Z,4.18
2022-08-17T22:59:41.528Z,4.28
2022-08-17T23:02:29.467Z,3.92
2022-08-17T23:05:21.381Z,3.92
2022-08-17T23:08:08.157Z,4.05
2022-08-17T23:10:55.256Z,4.70
2022-08-17T23:13:42.205Z,4.78
2022-08-17T23:16:30.571Z,4.63
2022-08-17T23:19:19.374Z,4.25
2022-08-17T23:22:07.778Z,5.10
2022-08-17T23:24:54.659Z,5.17
2022-08-17T23:27:42.118Z,3.75
2022-08-17T23:30:30.261Z,4.97
2022-08-17T23:33:21.218Z,4.45
2022-08-17T23:36:09.645Z,5.38
2022-08-17T23:38:57.571Z,5.18
2022-08-17T23:41:44.570Z,5.38
2022-08-17T23:44:31.404Z,5.53
2022-08-17T23:47:18.445Z,5.55
2022-08-17T23:50:07.197Z,5.57
2022-08-17T23:52:54.230Z,5.05
2022-08-17T23:55:40.853Z,5.65
2022-08-17T23:58:28.601Z,5.97
